Time;durP1;ratioP1;P1;durP2;ratioP2;P2;SDS_P1;SDS_P2;PMS_P1;PMS_P2;Temp;Humidity;BMP_temperature;BMP_pressure;BME280_temperature;BME280_humidity;BME280_pressure;Samples;Min_cycle;Max_cycle;Signal;HPM_P1;HPM_P2
2022/10/23 00:00:18;;;;;;;4.47;2.20;;;13.60;99.90;;;;;;5077362;28;20464;-81
2022/10/23 00:02:44;;;;;;;3.80;2.20;;;13.60;99.90;;;;;;5076681;28;20467;-82
2022/10/23 00:05:11;;;;;;;6.90;2.37;;;13.60;99.90;;;;;;5090626;28;20453;-82
2022/10/23 00:07:38;;;;;;;2.53;1.77;;;13.50;99.90;;;;;;5097074;28;20485;-82
2022/10/23 00:10:06;;;;;;;4.23;2.43;;;13.60;99.90;;;;;;5096533;28;20452;-82
2022/10/23 00:12:33;;;;;;;3.33;1.83;;;13.50;99.90;;;;;;5096694;28;20476;-82
2022/10/23 00:15:01;;;;;;;3.63;2.00;;;13.50;99.90;;;;;;5084102;28;20452;-82
2022/10/23 00:17:31;;;;;;;4.73;2.03;;;13.50;99.90;;;;;;5076846;28;20450;-82
2022/10/23 00:19:58;;;;;;;2.77;1.97;;;13.50;99.90;;;;;;5074321;28;20447;-82
2022/10/23 00:22:25;;;;;;;5.40;2.13;;;13.40;99.90;;;;;;5076243;28;20478;-82
2022/10/23 00:24:52;;;;;;;2.80;1.70;;;13.40;99.90;;;;;;5087104;28;20829;-82
2022/10/23 00:27:19;;;;;;;3.70;2.30;;;13.40;99.90;;;;;;5096617;28;20488;-82
2022/10/23 00:29:45;;;;;;;3.40;2.10;;;13.40;99.90;;;;;;5095867;28;20456;-82
2022/10/23 00:32:14;;;;;;;4.33;2.00;;;13.30;99.90;;;;;;5096546;28;20993;-82
2022/10/23 00:34:40;;;;;;;3.27;2.23;;;13.30;99.90;;;;;;5087620;28;20460;-81
2022/10/23 00:37:07;;;;;;;2.77;2.07;;;13.30;99.90;;;;;;5076205;28;20464;-82
2022/10/23 00:39:34;;;;;;;6.87;2.67;;;13.20;99.90;;;;;;5075716;28;20456;-82
2022/10/23 00:42:01;;;;;;;2.70;2.20;;;13.20;99.90;;;;;;5076041;28;20477;-82
2022/10/23 00:45:05;;;;;;;7.87;2.37;;;13.20;99.90;;;;;;5083491;28;20454;-82
2022/10/23 00:47:33;;;;;;;3.13;2.00;;;13.20;99.90;;;;;;5095857;28;20485;-82
2022/10/23 00:50:00;;;;;;;7.77;2.20;;;13.20;99.90;;;;;;5095329;28;20449;-82
2022/10/23 00:52:28;;;;;;;6.10;2.03;;;13.20;99.90;;;;;;5096653;28;21176;-82
2022/10/23 00:54:56;;;;;;;4.50;1.80;;;13.20;99.90;;;;;;5085404;28;20460;-82
2022/10/23 00:57:23;;;;;;;7.13;2.90;;;13.20;99.90;;;;;;5076397;28;20455;-81
2022/10/23 00:59:50;;;;;;;4.40;2.07;;;13.10;99.90;;;;;;5074498;28;20458;-82
2022/10/23 01:02:17;;;;;;;3.80;2.00;;;13.10;99.90;;;;;;5076218;28;20479;-82
2022/10/23 01:04:45;;;;;;;2.90;2.10;;;13.10;99.90;;;;;;5084325;28;20834;-82
2022/10/23 01:07:18;;;;;;;4.50;2.10;;;13.10;99.90;;;;;;5095472;28;21016;-83
2022/10/23 01:09:51;;;;;;;4.97;2.03;;;13.10;99.90;;;;;;5094745;28;20453;-82
2022/10/23 01:12:26;;;;;;;4.33;2.40;;;13.00;99.90;;;;;;5095638;28;20976;-82
2022/10/23 01:15:04;;;;;;;4.23;2.33;;;13.00;99.90;;;;;;5085988;28;20480;-82
2022/10/23 01:17:37;;;;;;;16.93;2.47;;;13.00;99.90;;;;;;5076050;28;20439;-82
2022/10/23 01:20:19;;;;;;;5.00;2.20;;;13.00;99.90;;;;;;5074541;28;20447;-82
2022/10/23 01:23:13;;;;;;;3.60;2.10;;;13.00;99.90;;;;;;5076251;28;20471;-82
2022/10/23 01:25:58;;;;;;;4.70;1.87;;;13.00;99.90;;;;;;5090895;28;20446;-82
2022/10/23 01:28:32;;;;;;;4.60;2.03;;;13.00;99.90;;;;;;5094566;28;20492;-82
2022/10/23 01:31:00;;;;;;;4.27;2.10;;;13.00;99.90;;;;;;5095462;28;20532;-82
2022/10/23 01:33:33;;;;;;;5.60;2.23;;;13.00;99.90;;;;;;5095313;28;20473;-83
2022/10/23 01:36:03;;;;;;;4.17;2.40;;;13.00;99.90;;;;;;5076841;28;20456;-82
2022/10/23 01:38:38;;;;;;;3.57;2.00;;;13.00;99.90;;;;;;5074953;28;20434;-82
2022/10/23 01:41:11;;;;;;;7.60;2.70;;;13.00;99.90;;;;;;5075299;28;20432;-83
2022/10/23 01:43:45;;;;;;;2.03;1.77;;;13.00;99.90;;;;;;5075233;28;20476;-82
2022/10/23 01:46:16;;;;;;;7.90;2.40;;;13.00;99.90;;;;;;5093174;28;20824;-82
2022/10/23 01:48:47;;;;;;;3.10;1.80;;;13.00;99.90;;;;;;5075607;28;20479;-82
2022/10/23 01:51:16;;;;;;;5.27;2.20;;;13.00;99.90;;;;;;5074948;28;20538;-82
2022/10/23 01:53:46;;;;;;;3.37;2.00;;;13.00;99.90;;;;;;5074814;28;20842;-82
2022/10/23 01:56:16;;;;;;;5.17;2.50;;;13.00;99.90;;;;;;5094404;28;20466;-84
2022/10/23 01:58:48;;;;;;;3.77;1.93;;;13.00;99.90;;;;;;5094255;28;20452;-82
2022/10/23 02:01:16;;;;;;;3.13;1.73;;;13.00;99.90;;;;;;5095209;28;20801;-82
2022/10/23 02:03:44;;;;;;;5.57;1.77;;;13.00;99.90;;;;;;5095006;28;20488;-82
2022/10/23 02:06:11;;;;;;;7.57;2.20;;;13.00;99.90;;;;;;5074269;28;20452;-82
2022/10/23 02:08:38;;;;;;;5.70;1.83;;;13.10;99.90;;;;;;5073905;28;20492;-82
2022/10/23 02:11:08;;;;;;;3.57;2.13;;;13.10;99.90;;;;;;5074421;28;20457;-82
2022/10/23 02:13:42;;;;;;;6.53;2.30;;;13.10;99.90;;;;;;5072498;28;20487;-82
2022/10/23 02:16:21;;;;;;;6.23;1.97;;;13.10;99.90;;;;;;5092853;28;20465;-82
2022/10/23 02:18:55;;;;;;;3.90;2.00;;;13.10;99.90;;;;;;5093856;28;20446;-82
2022/10/23 02:21:31;;;;;;;5.40;2.23;;;13.10;99.90;;;;;;5094381;28;20437;-82
2022/10/23 02:24:02;;;;;;;4.40;1.87;;;13.20;99.90;;;;;;5093807;28;20437;-82
2022/10/23 02:26:35;;;;;;;2.87;1.93;;;13.20;99.90;;;;;;5074050;28;20459;-82
2022/10/23 02:29:09;;;;;;;4.03;2.30;;;13.20;99.90;;;;;;5073715;28;20494;-82
2022/10/23 02:31:37;;;;;;;6.40;3.20;;;13.20;99.90;;;;;;5073826;28;20454;-83
2022/10/23 02:34:04;;;;;;;6.70;1.80;;;13.10;99.90;;;;;;5074761;28;20928;-82
2022/10/23 02:36:31;;;;;;;4.07;2.10;;;13.20;99.90;;;;;;5094136;28;20454;-82
2022/10/23 02:38:58;;;;;;;2.67;1.60;;;13.20;99.90;;;;;;5093514;28;20445;-82
2022/10/23 02:41:33;;;;;;;8.60;2.80;;;13.30;99.90;;;;;;5094157;28;20459;-83
2022/10/23 02:44:08;;;;;;;4.73;1.83;;;13.20;99.90;;;;;;5093718;28;20426;-82
2022/10/23 02:46:45;;;;;;;2.83;1.60;;;13.30;99.90;;;;;;5059533;28;20500;-82
2022/10/23 02:49:16;;;;;;;3.40;2.10;;;13.30;99.90;;;;;;5073304;28;20442;-82
2022/10/23 02:51:54;;;;;;;4.60;2.17;;;13.30;99.90;;;;;;5073622;28;20454;-83
2022/10/23 02:54:31;;;;;;;3.50;1.60;;;13.30;99.90;;;;;;5074253;28;20450;-82
2022/10/23 02:57:04;;;;;;;6.80;1.77;;;13.30;99.90;;;;;;5093639;28;20450;-83
2022/10/23 02:59:36;;;;;;;4.20;2.50;;;13.30;99.90;;;;;;5093246;28;20938;-82
2022/10/23 03:02:14;;;;;;;3.10;1.97;;;13.40;99.90;;;;;;5094136;28;20477;-82
2022/10/23 03:04:43;;;;;;;3.70;1.90;;;13.40;99.90;;;;;;5088123;28;20457;-83
2022/10/23 03:07:12;;;;;;;5.67;2.20;;;13.40;99.90;;;;;;5073607;28;20450;-82
2022/10/23 03:09:39;;;;;;;4.23;1.80;;;13.40;99.90;;;;;;5073143;28;20830;-82
2022/10/23 03:12:06;;;;;;;3.10;1.63;;;13.40;99.90;;;;;;5073072;28;21002;-82
2022/10/23 03:14:33;;;;;;;4.13;1.97;;;13.40;99.90;;;;;;5077054;28;20453;-82
2022/10/23 03:16:59;;;;;;;5.10;3.20;;;13.40;99.90;;;;;;5094366;28;20456;-82
2022/10/23 03:19:28;;;;;;;3.10;1.90;;;13.40;99.90;;;;;;5096844;28;20458;-82
2022/10/23 03:21:54;;;;;;;3.67;2.10;;;13.50;99.90;;;;;;5097942;28;20473;-82
2022/10/23 03:24:21;;;;;;;3.00;1.83;;;13.40;99.90;;;;;;5095511;28;20442;-81
2022/10/23 03:26:48;;;;;;;3.67;1.83;;;13.40;99.90;;;;;;5077970;28;20837;-82
2022/10/23 03:29:15;;;;;;;2.83;1.90;;;13.50;99.90;;;;;;5076711;28;20491;-82
2022/10/23 03:31:42;;;;;;;4.07;1.57;;;13.50;99.90;;;;;;5077773;28;20481;-82
2022/10/23 03:34:10;;;;;;;6.53;2.00;;;13.50;99.90;;;;;;5077533;28;20821;-82
2022/10/23 03:36:38;;;;;;;3.70;2.57;;;13.50;99.90;;;;;;5097674;28;20469;-82
2022/10/23 03:39:05;;;;;;;2.80;1.90;;;13.40;99.90;;;;;;5096557;28;20445;-81
2022/10/23 03:41:32;;;;;;;4.50;1.70;;;13.40;99.90;;;;;;5096923;28;20446;-82
2022/10/23 03:43:59;;;;;;;4.20;2.33;;;13.40;99.90;;;;;;5097509;28;20456;-82
2022/10/23 03:46:26;;;;;;;4.47;2.33;;;13.40;99.90;;;;;;5078242;28;20881;-82
2022/10/23 03:48:53;;;;;;;5.07;2.10;;;13.50;99.90;;;;;;5076581;28;20482;-82
2022/10/23 03:51:20;;;;;;;2.17;1.63;;;13.50;99.90;;;;;;5076487;28;20482;-82
2022/10/23 03:53:48;;;;;;;3.20;1.90;;;13.50;99.90;;;;;;5077019;28;20870;-83
2022/10/23 03:56:15;;;;;;;5.70;2.20;;;13.50;99.90;;;;;;5094136;28;20456;-82
2022/10/23 03:58:42;;;;;;;5.57;1.97;;;13.50;99.90;;;;;;5096903;28;20916;-82
2022/10/23 04:01:09;;;;;;;2.50;1.80;;;13.50;99.90;;;;;;5096719;28;20448;-82
2022/10/23 04:03:36;;;;;;;2.47;1.60;;;13.50;99.90;;;;;;5096700;28;20472;-82
2022/10/23 04:06:02;;;;;;;5.80;2.27;;;13.40;99.90;;;;;;5081648;28;20449;-83
2022/10/23 04:08:29;;;;;;;6.47;2.43;;;13.40;99.90;;;;;;5076177;28;20486;-82
2022/10/23 04:10:57;;;;;;;6.63;2.40;;;13.50;99.90;;;;;;5076135;28;20454;-82
2022/10/23 04:13:24;;;;;;;2.37;1.77;;;13.50;99.90;;;;;;5077076;28;20481;-82
2022/10/23 04:15:52;;;;;;;3.50;1.93;;;13.50;99.90;;;;;;5090058;28;20457;-82
2022/10/23 04:18:19;;;;;;;6.43;2.70;;;13.50;99.90;;;;;;5096243;28;20459;-82
2022/10/23 04:20:47;;;;;;;3.70;2.23;;;13.50;99.90;;;;;;5106231;28;20457;-81
2022/10/23 04:23:14;;;;;;;6.27;2.90;;;13.50;99.90;;;;;;5110006;28;20501;-80
2022/10/23 04:25:41;;;;;;;6.80;2.00;;;13.50;99.90;;;;;;5091244;28;20545;-82
2022/10/23 04:28:10;;;;;;;4.83;2.30;;;13.50;99.90;;;;;;5075553;28;20497;-81
2022/10/23 04:30:36;;;;;;;3.93;2.40;;;13.50;99.90;;;;;;5075925;28;20453;-82
2022/10/23 04:33:03;;;;;;;4.63;2.90;;;13.50;99.90;;;;;;5077923;28;20469;-82
2022/10/23 04:35:30;;;;;;;9.27;4.30;;;13.50;99.90;;;;;;5086565;28;20457;-81
2022/10/23 04:37:57;;;;;;;10.50;4.03;;;13.50;99.90;;;;;;5095326;28;20937;-82
2022/10/23 04:40:24;;;;;;;7.90;3.53;;;13.50;99.90;;;;;;5096237;28;20448;-82
2022/10/23 04:42:50;;;;;;;6.90;4.17;;;13.60;99.90;;;;;;5096108;28;21015;-82
2022/10/23 04:45:18;;;;;;;5.10;3.97;;;13.50;99.90;;;;;;5087763;28;20837;-81
2022/10/23 04:47:45;;;;;;;9.20;3.50;;;13.60;99.90;;;;;;5076089;28;20493;-81
2022/10/23 04:50:12;;;;;;;8.03;3.83;;;13.50;99.90;;;;;;5075175;28;20863;-81
2022/10/23 04:52:39;;;;;;;7.03;3.57;;;13.50;99.90;;;;;;5075852;28;20469;-82
2022/10/23 04:55:08;;;;;;;6.80;3.30;;;13.50;99.90;;;;;;5081854;28;20821;-82
2022/10/23 04:57:35;;;;;;;9.03;4.13;;;13.50;99.90;;;;;;5096283;28;20476;-82
2022/10/23 05:00:01;;;;;;;8.83;4.10;;;13.50;99.90;;;;;;5095480;28;20460;-81
2022/10/23 05:02:29;;;;;;;3.30;3.00;;;13.50;99.90;;;;;;5095718;28;20563;-82
2022/10/23 05:04:56;;;;;;;5.50;2.97;;;13.50;99.90;;;;;;5090628;28;20830;-82
2022/10/23 05:07:23;;;;;;;4.17;2.80;;;13.50;99.90;;;;;;5075867;28;20542;-81
2022/10/23 05:09:50;;;;;;;5.53;3.20;;;13.50;99.90;;;;;;5074599;28;20487;-82
2022/10/23 05:12:17;;;;;;;8.13;3.17;;;13.50;99.90;;;;;;5075026;28;20487;-81
2022/10/23 05:14:44;;;;;;;5.03;2.63;;;13.50;99.90;;;;;;5078093;28;20468;-82
2022/10/23 05:17:16;;;;;;;3.07;2.20;;;13.50;99.90;;;;;;5095771;28;20449;-82
2022/10/23 05:19:49;;;;;;;5.20;2.50;;;13.60;99.90;;;;;;5093358;28;20440;-82
2022/10/23 05:22:18;;;;;;;4.70;2.50;;;13.60;99.90;;;;;;5095624;28;20464;-82
2022/10/23 05:24:45;;;;;;;3.70;2.47;;;13.60;99.90;;;;;;5092649;28;20462;-82
2022/10/23 05:27:11;;;;;;;4.77;2.37;;;13.60;99.90;;;;;;5075478;28;20509;-82
2022/10/23 05:29:38;;;;;;;5.60;2.33;;;13.60;99.90;;;;;;5074184;28;20497;-82
2022/10/23 05:32:07;;;;;;;3.10;1.80;;;13.60;99.90;;;;;;5074843;28;20740;-81
2022/10/23 05:34:37;;;;;;;4.53;1.87;;;13.60;99.90;;;;;;5076313;28;20451;-82
2022/10/23 05:37:08;;;;;;;6.03;1.97;;;13.60;99.90;;;;;;5095556;28;20459;-82
2022/10/23 05:39:35;;;;;;;3.83;2.00;;;13.60;99.90;;;;;;5094106;28;20434;-82
2022/10/23 05:42:02;;;;;;;4.27;2.30;;;13.60;99.90;;;;;;5094990;28;20475;-82
2022/10/23 05:44:29;;;;;;;3.20;2.13;;;13.60;99.90;;;;;;5095143;28;20831;-81
2022/10/23 05:46:56;;;;;;;5.70;2.37;;;13.60;99.90;;;;;;5074789;28;20455;-82
2022/10/23 05:49:24;;;;;;;3.80;2.17;;;13.60;99.90;;;;;;5074312;28;20490;-82
2022/10/23 05:51:52;;;;;;;6.03;1.83;;;13.60;99.90;;;;;;5075018;28;20488;-85
2022/10/23 05:54:20;;;;;;;4.00;1.90;;;13.60;99.90;;;;;;5075433;28;20454;-84
2022/10/23 05:56:47;;;;;;;2.57;1.97;;;13.60;99.90;;;;;;5094385;28;20450;-84
2022/10/23 05:59:13;;;;;;;3.73;1.97;;;13.60;99.90;;;;;;5094655;28;20449;-85
2022/10/23 06:01:40;;;;;;;4.47;2.27;;;13.60;99.90;;;;;;5095697;28;20449;-84
2022/10/23 06:04:07;;;;;;;3.50;1.93;;;13.60;99.90;;;;;;5095103;28;20459;-83
2022/10/23 06:06:35;;;;;;;3.10;1.70;;;13.60;99.90;;;;;;5094977;28;20460;-85
2022/10/23 06:09:02;;;;;;;2.43;1.73;;;13.60;99.90;;;;;;5095327;28;20531;-85
2022/10/23 06:11:30;;;;;;;2.50;1.70;;;13.60;99.90;;;;;;5095256;28;20452;-82
2022/10/23 06:13:59;;;;;;;2.83;1.90;;;13.70;99.90;;;;;;5095324;28;20464;-85
2022/10/23 06:16:26;;;;;;;3.20;1.63;;;13.70;99.90;;;;;;5079132;28;20532;-85
2022/10/23 06:18:53;;;;;;;4.70;2.20;;;13.70;99.90;;;;;;5074511;28;20956;-84
2022/10/23 06:21:20;;;;;;;3.80;1.97;;;13.70;99.90;;;;;;5072801;28;20462;-85
2022/10/23 06:23:47;;;;;;;5.70;2.00;;;13.70;99.90;;;;;;5074995;28;20473;-85
2022/10/23 06:26:17;;;;;;;4.17;1.97;;;13.70;99.90;;;;;;5075172;28;20464;-85
2022/10/23 06:28:45;;;;;;;3.63;1.83;;;13.70;99.90;;;;;;5073969;28;20489;-85
2022/10/23 06:31:14;;;;;;;5.67;2.20;;;13.60;99.90;;;;;;5074701;28;20978;-84
2022/10/23 06:33:41;;;;;;;4.13;2.20;;;13.70;99.90;;;;;;5074591;28;20467;-84
2022/10/23 06:36:09;;;;;;;2.97;1.80;;;13.70;99.90;;;;;;5077989;28;20446;-85
2022/10/23 06:38:39;;;;;;;3.67;2.30;;;13.70;99.90;;;;;;5074588;28;20735;-85
2022/10/23 06:41:08;;;;;;;3.67;1.80;;;13.70;99.90;;;;;;5074903;28;20449;-84
2022/10/23 06:43:34;;;;;;;6.10;2.40;;;13.80;99.90;;;;;;5076336;28;20523;-85
2022/10/23 06:46:04;;;;;;;3.97;1.97;;;13.80;99.90;;;;;;5087551;28;20475;-83
2022/10/23 06:48:31;;;;;;;3.00;1.77;;;13.80;99.90;;;;;;5078750;28;20486;-82
2022/10/23 06:50:58;;;;;;;4.60;2.23;;;13.80;99.90;;;;;;5076141;28;20984;-83
2022/10/23 06:53:25;;;;;;;3.47;2.30;;;13.80;99.90;;;;;;5070248;28;20462;-84
2022/10/23 06:55:52;;;;;;;3.93;2.10;;;13.80;99.90;;;;;;5076949;28;20461;-84
2022/10/23 06:58:19;;;;;;;3.60;2.10;;;13.90;99.90;;;;;;5072936;28;20954;-84
2022/10/23 07:00:45;;;;;;;3.40;1.90;;;13.90;99.90;;;;;;5074126;28;20448;-82
2022/10/23 07:03:14;;;;;;;3.13;1.97;;;14.00;99.90;;;;;;5087190;28;20584;-85
2022/10/23 07:05:43;;;;;;;3.40;2.00;;;14.00;99.90;;;;;;5073762;28;20452;-82
2022/10/23 07:08:10;;;;;;;5.10;2.13;;;14.00;99.90;;;;;;5076369;28;20476;-85
2022/10/23 07:10:37;;;;;;;4.40;2.00;;;14.00;99.90;;;;;;5074169;28;20543;-85
2022/10/23 07:13:04;;;;;;;5.50;1.90;;;14.10;99.90;;;;;;5079169;28;20488;-85
2022/10/23 07:15:33;;;;;;;2.80;2.17;;;14.10;99.90;;;;;;5080387;28;21990;-85
2022/10/23 07:18:00;;;;;;;5.50;1.90;;;14.10;99.90;;;;;;5068145;28;20493;-84
2022/10/23 07:20:28;;;;;;;4.90;2.03;;;14.10;99.90;;;;;;5073299;28;20890;-85
2022/10/23 07:22:56;;;;;;;5.50;1.80;;;14.20;99.90;;;;;;5087505;28;20822;-85
2022/10/23 07:25:24;;;;;;;3.47;2.03;;;14.20;99.90;;;;;;5094147;28;20945;-86
2022/10/23 07:27:51;;;;;;;8.60;2.00;;;14.30;99.90;;;;;;5084373;28;20475;-84
2022/10/23 07:30:18;;;;;;;4.10;2.07;;;14.30;99.90;;;;;;5074440;28;20488;-84
2022/10/23 07:32:45;;;;;;;3.90;2.50;;;14.30;99.90;;;;;;5073600;28;20477;-84
2022/10/23 07:35:13;;;;;;;5.37;2.40;;;14.40;99.90;;;;;;5081974;28;20450;-85
2022/10/23 07:37:41;;;;;;;2.93;1.93;;;14.40;99.90;;;;;;5079899;28;20444;-85
2022/10/23 07:40:08;;;;;;;4.40;2.03;;;14.40;99.90;;;;;;5079922;28;20465;-85
2022/10/23 07:42:35;;;;;;;3.23;2.00;;;14.50;99.90;;;;;;5074033;28;20681;-85
2022/10/23 07:45:03;;;;;;;3.57;1.97;;;14.50;99.90;;;;;;5075726;28;20444;-86
2022/10/23 07:47:31;;;;;;;3.20;2.20;;;14.50;99.90;;;;;;5082134;28;20452;-84
2022/10/23 07:49:58;;;;;;;4.07;2.00;;;14.60;99.90;;;;;;5072007;28;20907;-85
2022/10/23 07:52:25;;;;;;;4.33;2.57;;;14.60;99.90;;;;;;5076254;28;20483;-83
2022/10/23 07:54:53;;;;;;;3.40;2.10;;;14.70;99.90;;;;;;5085975;28;20477;-85
2022/10/23 07:57:20;;;;;;;3.50;2.10;;;14.70;99.90;;;;;;5074836;28;20448;-85
2022/10/23 07:59:47;;;;;;;3.20;2.07;;;14.80;99.90;;;;;;5073864;28;20470;-84
2022/10/23 08:02:15;;;;;;;3.33;1.97;;;14.80;99.90;;;;;;5073914;28;20994;-85
2022/10/23 08:04:42;;;;;;;4.60;2.13;;;14.90;99.90;;;;;;5076143;28;20484;-84
2022/10/23 08:07:09;;;;;;;3.47;1.57;;;14.90;99.90;;;;;;5077760;28;20447;-84
2022/10/23 08:09:36;;;;;;;3.40;1.73;;;15.00;99.90;;;;;;5077296;28;21034;-84
2022/10/23 08:12:05;;;;;;;4.47;2.03;;;15.00;99.90;;;;;;5078335;28;20536;-84
2022/10/23 08:14:32;;;;;;;2.73;2.13;;;15.00;99.90;;;;;;5097573;28;20977;-84
2022/10/23 08:16:59;;;;;;;4.17;1.83;;;15.20;99.90;;;;;;5091638;28;20476;-82
2022/10/23 08:19:25;;;;;;;6.03;2.10;;;15.30;99.90;;;;;;5077617;28;20528;-84
2022/10/23 08:21:54;;;;;;;3.50;1.97;;;15.30;99.90;;;;;;5078717;28;20541;-85
2022/10/23 08:24:20;;;;;;;2.63;1.67;;;15.40;99.90;;;;;;5079880;28;20455;-83
2022/10/23 08:26:49;;;;;;;3.37;1.90;;;15.50;99.90;;;;;;5079314;28;20521;-84
2022/10/23 08:29:17;;;;;;;3.83;1.63;;;15.60;99.90;;;;;;5078730;28;20889;-84
2022/10/23 08:31:44;;;;;;;6.93;1.57;;;15.70;99.90;;;;;;5079340;28;20840;-84
2022/10/23 08:34:11;;;;;;;5.63;1.70;;;15.70;99.90;;;;;;5092735;28;20454;-85
2022/10/23 08:36:39;;;;;;;2.20;1.50;;;15.80;99.90;;;;;;5081382;28;20442;-84
2022/10/23 08:39:06;;;;;;;9.03;2.30;;;15.90;99.90;;;;;;5078088;28;20447;-84
2022/10/23 08:41:36;;;;;;;4.57;1.90;;;15.90;99.90;;;;;;5078641;28;20546;-86
2022/10/23 08:44:09;;;;;;;5.90;2.57;;;15.90;99.90;;;;;;5092248;28;20449;-85
2022/10/23 08:46:41;;;;;;;6.70;1.40;;;16.00;99.90;;;;;;5079434;28;20459;-86
2022/10/23 08:49:20;;;;;;;4.20;2.20;;;16.10;99.90;;;;;;5077397;28;20488;-84
2022/10/23 08:51:50;;;;;;;3.30;1.93;;;16.20;99.90;;;;;;5066900;28;20458;-86
2022/10/23 08:54:21;;;;;;;2.90;1.93;;;16.30;99.90;;;;;;5090508;28;20452;-86
2022/10/23 08:56:54;;;;;;;4.50;2.87;;;16.40;99.90;;;;;;5077151;28;20523;-85
2022/10/23 08:59:27;;;;;;;5.80;2.00;;;16.50;99.90;;;;;;5076904;28;20453;-86
2022/10/23 09:02:00;;;;;;;4.97;2.30;;;16.60;99.90;;;;;;5077632;28;20479;-83
2022/10/23 09:04:27;;;;;;;5.53;2.93;;;16.70;99.90;;;;;;5074416;28;20512;-84
2022/10/23 09:07:04;;;;;;;6.30;2.93;;;16.80;99.90;;;;;;5064583;28;20458;-83
2022/10/23 09:09:56;;;;;;;3.67;2.30;;;16.80;99.90;;;;;;5077024;28;20478;-82
2022/10/23 09:12:24;;;;;;;3.90;2.50;;;16.90;99.90;;;;;;5084882;28;21184;-84
2022/10/23 09:15:22;;;;;;;4.17;2.30;;;17.00;99.90;;;;;;5077048;28;20462;-84
2022/10/23 09:17:55;;;;;;;6.23;2.23;;;17.00;99.90;;;;;;5050303;28;20505;-85
2022/10/23 09:20:24;;;;;;;5.10;2.33;;;17.00;99.90;;;;;;5075681;28;20461;-84
2022/10/23 09:22:55;;;;;;;5.63;2.17;;;17.10;99.90;;;;;;5073074;28;20469;-84
2022/10/23 09:25:24;;;;;;;3.10;1.90;;;17.10;99.90;;;;;;5056799;28;20449;-85
2022/10/23 09:27:53;;;;;;;4.17;2.57;;;17.10;99.90;;;;;;5056486;28;20457;-84
2022/10/23 09:30:30;;;;;;;4.67;2.27;;;17.10;99.90;;;;;;5057345;28;20476;-85
2022/10/23 09:32:59;;;;;;;4.50;1.90;;;17.10;99.90;;;;;;5060213;28;20500;-83
2022/10/23 09:35:28;;;;;;;5.60;2.40;;;17.10;99.90;;;;;;5098259;28;20456;-84
2022/10/23 09:37:56;;;;;;;3.70;1.97;;;17.10;99.90;;;;;;5097472;28;20454;-84
2022/10/23 09:40:32;;;;;;;3.27;2.47;;;17.10;99.90;;;;;;5096945;28;20877;-85
2022/10/23 09:43:13;;;;;;;6.03;2.53;;;17.10;99.90;;;;;;5096853;28;20520;-85
2022/10/23 09:45:41;;;;;;;3.30;2.50;;;17.10;99.90;;;;;;5097346;28;20817;-85
2022/10/23 09:48:14;;;;;;;5.33;3.60;;;17.10;99.90;;;;;;5096578;28;20476;-84
2022/10/23 09:50:52;;;;;;;7.90;5.83;;;17.10;99.90;;;;;;5096570;28;20472;-84
2022/10/23 09:53:26;;;;;;;5.00;3.73;;;17.10;99.90;;;;;;5055694;28;20486;-85
2022/10/23 09:55:56;;;;;;;4.90;3.10;;;17.10;99.90;;;;;;5056519;28;20441;-86
2022/10/23 09:58:30;;;;;;;2.20;1.87;;;17.20;99.90;;;;;;5056582;28;20458;-84
2022/10/23 10:00:57;;;;;;;5.77;2.77;;;17.20;99.90;;;;;;5057009;28;20443;-85
2022/10/23 10:03:25;;;;;;;6.23;1.50;;;17.20;99.90;;;;;;5056128;28;20474;-86
2022/10/23 10:05:57;;;;;;;3.80;1.53;;;17.20;99.90;;;;;;5056565;28;20455;-84
2022/10/23 10:08:32;;;;;;;2.77;1.23;;;17.30;99.90;;;;;;5056202;28;20546;-85
2022/10/23 10:11:02;;;;;;;3.20;1.40;;;17.30;99.90;;;;;;5038926;28;20559;-86
2022/10/23 10:13:56;;;;;;;5.10;1.57;;;17.40;99.90;;;;;;5076150;28;20500;-86
2022/10/23 10:16:33;;;;;;;3.87;1.37;;;17.50;99.90;;;;;;5052646;28;20454;-85
2022/10/23 10:19:10;;;;;;;4.70;2.40;;;17.50;99.90;;;;;;5075010;28;20445;-85
2022/10/23 10:21:45;;;;;;;4.60;1.40;;;17.60;99.90;;;;;;5075246;28;20469;-84
2022/10/23 10:24:20;;;;;;;3.60;1.67;;;17.70;99.90;;;;;;5075941;28;20447;-84
2022/10/23 10:26:57;;;;;;;5.13;1.90;;;17.80;99.90;;;;;;5074338;28;20471;-85
2022/10/23 10:29:36;;;;;;;3.60;2.10;;;17.90;99.90;;;;;;5075930;28;20442;-85
2022/10/23 10:32:14;;;;;;;3.70;1.10;;;17.90;99.90;;;;;;5083955;28;20476;-83
2022/10/23 10:34:51;;;;;;;2.97;1.43;;;17.90;99.90;;;;;;5090843;28;20451;-83
2022/10/23 10:37:26;;;;;;;4.50;1.73;;;17.90;99.90;;;;;;5074326;28;20448;-82
2022/10/23 10:40:02;;;;;;;2.57;1.40;;;17.90;99.90;;;;;;5074024;28;20444;-84
2022/10/23 10:42:54;;;;;;;2.00;1.10;;;17.90;99.90;;;;;;5083497;28;20840;-84
2022/10/23 10:45:32;;;;;;;2.70;1.43;;;17.90;99.90;;;;;;5064652;28;21032;-82
2022/10/23 10:48:31;;;;;;;2.70;1.70;;;17.90;99.90;;;;;;5068554;28;20448;-85
2022/10/23 10:51:02;;;;;;;2.30;1.10;;;17.90;99.90;;;;;;5066714;28;20483;-83
2022/10/23 10:53:42;;;;;;;5.50;1.40;;;17.90;99.90;;;;;;5078074;28;20580;-84
2022/10/23 10:56:14;;;;;;;2.17;1.40;;;17.90;99.90;;;;;;5075473;28;20451;-85
2022/10/23 10:58:47;;;;;;;3.90;1.20;;;17.90;99.90;;;;;;5075808;28;20431;-83
2022/10/23 11:01:25;;;;;;;3.87;1.40;;;17.90;99.90;;;;;;5078486;28;20541;-85
2022/10/23 11:03:54;;;;;;;3.30;1.30;;;18.00;99.90;;;;;;5095674;28;20495;-86
2022/10/23 11:06:26;;;;;;;3.77;1.60;;;18.00;99.90;;;;;;5094752;28;20941;-84
2022/10/23 11:08:53;;;;;;;3.60;1.30;;;18.00;99.90;;;;;;5095421;28;20859;-82
2022/10/23 11:11:26;;;;;;;5.07;1.43;;;18.10;99.90;;;;;;5092475;28;20487;-84
2022/10/23 11:13:53;;;;;;;4.13;1.20;;;18.00;99.90;;;;;;5075757;28;20479;-85
2022/10/23 11:16:24;;;;;;;3.70;1.17;;;18.00;99.90;;;;;;5077143;28;20450;-86
2022/10/23 11:19:03;;;;;;;2.10;1.20;;;18.00;99.90;;;;;;5075473;28;20461;-85
2022/10/23 11:21:38;;;;;;;5.30;1.77;;;18.00;99.90;;;;;;5072577;28;20446;-85
2022/10/23 11:24:48;;;;;;;6.00;1.30;;;18.00;99.90;;;;;;5084463;28;20456;-83
2022/10/23 11:27:32;;;;;;;3.93;1.27;;;18.00;99.90;;;;;;5070492;28;20440;-87
2022/10/23 11:30:28;;;;;;;3.23;1.40;;;18.10;99.90;;;;;;5098338;28;20589;-89
2022/10/23 11:33:20;;;;;;;2.97;1.33;;;18.20;99.90;;;;;;5104370;28;20464;-88
2022/10/23 11:36:02;;;;;;;1.90;1.10;;;18.30;99.90;;;;;;5078515;28;20458;-86
2022/10/23 11:38:34;;;;;;;3.40;1.33;;;18.40;99.90;;;;;;5074914;28;20557;-84
2022/10/23 11:41:04;;;;;;;3.10;1.50;;;18.60;99.90;;;;;;5077062;28;20444;-85
2022/10/23 11:43:33;;;;;;;3.27;1.27;;;18.60;99.90;;;;;;5077507;28;20468;-84
2022/10/23 11:46:11;;;;;;;5.17;1.83;;;18.70;99.90;;;;;;5077460;28;20448;-86
2022/10/23 11:48:40;;;;;;;3.00;1.33;;;18.60;99.90;;;;;;5077954;28;20423;-85
2022/10/23 11:51:27;;;;;;;3.60;1.80;;;18.60;99.90;;;;;;5077558;28;20512;-84
2022/10/23 11:54:06;;;;;;;2.60;1.50;;;18.70;99.90;;;;;;5081801;28;20552;-85
2022/10/23 11:56:33;;;;;;;6.13;1.73;;;18.80;99.90;;;;;;5083309;28;20538;-85
2022/10/23 11:59:21;;;;;;;3.13;1.20;;;18.90;99.90;;;;;;5084100;28;20994;-85
2022/10/23 12:01:51;;;;;;;9.00;1.30;;;19.00;99.90;;;;;;5078354;28;20450;-85
2022/10/23 12:04:23;;;;;;;2.33;1.30;;;19.10;99.90;;;;;;5077323;28;20462;-84
2022/10/23 12:06:52;;;;;;;1.97;1.23;;;19.20;99.90;;;;;;5079473;28;20443;-85
2022/10/23 12:09:30;;;;;;;3.70;1.10;;;19.20;99.90;;;;;;5073680;28;20473;-85
2022/10/23 12:12:16;;;;;;;2.40;1.20;;;19.20;99.90;;;;;;5088393;28;20576;-84
2022/10/23 12:14:45;;;;;;;4.70;1.40;;;19.20;99.90;;;;;;5082025;28;20445;-85
2022/10/23 12:17:34;;;;;;;6.40;1.70;;;19.10;99.90;;;;;;5085429;28;20481;-85
2022/10/23 12:20:27;;;;;;;3.70;1.17;;;19.10;99.90;;;;;;5070303;28;20540;-85
2022/10/23 12:23:13;;;;;;;3.80;1.20;;;19.20;99.90;;;;;;5078268;28;20473;-85
2022/10/23 12:25:51;;;;;;;2.97;1.30;;;19.30;99.90;;;;;;5058087;28;20444;-86
2022/10/23 12:28:28;;;;;;;2.90;1.37;;;19.20;99.90;;;;;;5058387;28;20984;-84
2022/10/23 12:31:08;;;;;;;13.33;1.70;;;19.20;99.90;;;;;;5062289;28;20830;-84
2022/10/23 12:33:41;;;;;;;2.87;1.40;;;19.30;99.90;;;;;;5087526;28;20473;-84
2022/10/23 12:36:23;;;;;;;3.63;1.60;;;19.70;99.90;;;;;;5081674;28;20467;-85
2022/10/23 12:38:50;;;;;;;4.37;1.50;;;19.90;99.90;;;;;;5080058;28;20471;-85
2022/10/23 12:41:22;;;;;;;4.10;1.20;;;20.30;99.90;;;;;;5081183;28;20456;-85
2022/10/23 12:43:53;;;;;;;3.20;1.43;;;20.70;99.90;;;;;;5073529;28;20471;-86
2022/10/23 12:46:30;;;;;;;4.40;1.57;;;20.90;99.90;;;;;;5076172;28;20451;-84
2022/10/23 12:48:59;;;;;;;4.13;1.50;;;20.90;99.90;;;;;;5077362;28;20461;-84
2022/10/23 12:51:28;;;;;;;2.30;1.30;;;21.20;99.90;;;;;;5077362;28;20493;-85
2022/10/23 12:53:56;;;;;;;9.23;1.60;;;21.40;99.90;;;;;;5079023;28;20529;-85
2022/10/23 12:56:25;;;;;;;4.67;1.77;;;21.70;99.90;;;;;;5077472;28;20454;-84
2022/10/23 12:58:55;;;;;;;3.40;1.13;;;21.90;99.90;;;;;;5082801;28;20450;-85
2022/10/23 13:01:27;;;;;;;2.63;1.30;;;21.90;99.90;;;;;;5088066;28;20443;-85
2022/10/23 13:03:59;;;;;;;2.20;1.30;;;21.80;99.90;;;;;;5091378;28;20544;-84